sensor_id;sensor_type;location;lat;lon;timestamp;P1;durP1;ratioP1;P2;durP2;ratioP2
30472;SDS011;17263;48.160;11.452;2024-01-10T00:02:17;37.47;;;23.20;;
30472;SDS011;17263;48.160;11.452;2024-01-10T00:04:43;40.27;;;23.77;;
30472;SDS011;17263;48.160;11.452;2024-01-10T00:07:09;39.70;;;23.17;;
30472;SDS011;17263;48.160;11.452;2024-01-10T00:09:35;39.30;;;23.43;;
30472;SDS011;17263;48.160;11.452;2024-01-10T00:12:01;34.30;;;22.30;;
30472;SDS011;17263;48.160;11.452;2024-01-10T00:14:27;40.57;;;24.53;;
30472;SDS011;17263;48.160;11.452;2024-01-10T00:16:53;37.07;;;21.90;;
30472;SDS011;17263;48.160;11.452;2024-01-10T00:19:19;37.07;;;22.83;;
30472;SDS011;17263;48.160;11.452;2024-01-10T00:21:45;37.13;;;22.30;;
30472;SDS011;17263;48.160;11.452;2024-01-10T00:24:11;38.57;;;23.03;;
30472;SDS011;17263;48.160;11.452;2024-01-10T00:26:37;38.83;;;23.17;;
30472;SDS011;17263;48.160;11.452;2024-01-10T00:29:03;36.33;;;22.90;;
30472;SDS011;17263;48.160;11.452;2024-01-10T00:31:29;36.27;;;22.47;;
30472;SDS011;17263;48.160;11.452;2024-01-10T00:33:55;38.10;;;23.27;;
30472;SDS011;17263;48.160;11.452;2024-01-10T00:36:21;35.07;;;22.37;;
30472;SDS011;17263;48.160;11.452;2024-01-10T00:38:47;37.13;;;21.77;;
30472;SDS011;17263;48.160;11.452;2024-01-10T00:41:13;36.63;;;22.40;;
30472;SDS011;17263;48.160;11.452;2024-01-10T00:43:40;33.23;;;22.27;;
30472;SDS011;17263;48.160;11.452;2024-01-10T00:46:06;35.77;;;21.83;;
30472;SDS011;17263;48.160;11.452;2024-01-10T00:48:32;35.40;;;20.90;;
30472;SDS011;17263;48.160;11.452;2024-01-10T00:50:59;41.70;;;24.10;;
30472;SDS011;17263;48.160;11.452;2024-01-10T00:53:25;42.10;;;24.47;;
30472;SDS011;17263;48.160;11.452;2024-01-10T00:55:51;37.10;;;22.60;;
30472;SDS011;17263;48.160;11.452;2024-01-10T00:58:17;39.80;;;23.07;;
30472;SDS011;17263;48.160;11.452;2024-01-10T01:00:44;35.37;;;21.37;;
30472;SDS011;17263;48.160;11.452;2024-01-10T01:03:10;34.97;;;21.87;;
30472;SDS011;17263;48.160;11.452;2024-01-10T01:05:36;35.63;;;22.73;;
30472;SDS011;17263;48.160;11.452;2024-01-10T01:08:02;37.80;;;21.77;;
30472;SDS011;17263;48.160;11.452;2024-01-10T01:10:28;36.53;;;22.77;;
30472;SDS011;17263;48.160;11.452;2024-01-10T01:12:54;34.97;;;21.83;;
30472;SDS011;17263;48.160;11.452;2024-01-10T01:15:20;43.50;;;25.57;;
30472;SDS011;17263;48.160;11.452;2024-01-10T01:17:46;36.37;;;22.60;;
30472;SDS011;17263;48.160;11.452;2024-01-10T01:20:12;38.37;;;23.63;;
30472;SDS011;17263;48.160;11.452;2024-01-10T01:22:38;36.37;;;21.93;;
30472;SDS011;17263;48.160;11.452;2024-01-10T01:25:04;38.93;;;22.43;;
30472;SDS011;17263;48.160;11.452;2024-01-10T01:27:30;37.53;;;23.03;;
30472;SDS011;17263;48.160;11.452;2024-01-10T01:29:56;38.57;;;23.33;;
30472;SDS011;17263;48.160;11.452;2024-01-10T01:32:22;40.17;;;23.50;;
30472;SDS011;17263;48.160;11.452;2024-01-10T01:34:48;40.37;;;23.07;;
30472;SDS011;17263;48.160;11.452;2024-01-10T01:37:15;40.20;;;23.10;;
30472;SDS011;17263;48.160;11.452;2024-01-10T01:39:41;39.53;;;23.70;;
30472;SDS011;17263;48.160;11.452;2024-01-10T01:42:07;37.57;;;22.40;;
30472;SDS011;17263;48.160;11.452;2024-01-10T01:44:33;36.20;;;21.70;;
30472;SDS011;17263;48.160;11.452;2024-01-10T01:46:59;38.17;;;22.43;;
30472;SDS011;17263;48.160;11.452;2024-01-10T01:49:26;38.33;;;22.10;;
30472;SDS011;17263;48.160;11.452;2024-01-10T01:51:54;35.10;;;21.87;;
30472;SDS011;17263;48.160;11.452;2024-01-10T01:54:21;38.93;;;23.17;;
30472;SDS011;17263;48.160;11.452;2024-01-10T01:56:48;36.67;;;22.13;;
30472;SDS011;17263;48.160;11.452;2024-01-10T01:59:15;39.30;;;22.77;;
30472;SDS011;17263;48.160;11.452;2024-01-10T02:01:41;39.73;;;23.47;;
30472;SDS011;17263;48.160;11.452;2024-01-10T02:04:07;39.90;;;23.40;;
30472;SDS011;17263;48.160;11.452;2024-01-10T02:06:33;38.77;;;23.47;;
30472;SDS011;17263;48.160;11.452;2024-01-10T02:08:59;37.20;;;22.90;;
30472;SDS011;17263;48.160;11.452;2024-01-10T02:11:26;34.50;;;21.13;;
30472;SDS011;17263;48.160;11.452;2024-01-10T02:13:52;40.57;;;22.73;;
30472;SDS011;17263;48.160;11.452;2024-01-10T02:16:21;43.40;;;23.47;;
30472;SDS011;17263;48.160;11.452;2024-01-10T02:18:48;38.00;;;21.30;;
30472;SDS011;17263;48.160;11.452;2024-01-10T02:21:15;35.47;;;21.47;;
30472;SDS011;17263;48.160;11.452;2024-01-10T02:23:41;38.83;;;21.30;;
30472;SDS011;17263;48.160;11.452;2024-01-10T02:26:07;34.93;;;20.90;;
30472;SDS011;17263;48.160;11.452;2024-01-10T02:28:33;39.00;;;21.97;;
30472;SDS011;17263;48.160;11.452;2024-01-10T02:30:59;41.40;;;23.77;;
30472;SDS011;17263;48.160;11.452;2024-01-10T02:33:26;41.17;;;23.50;;
30472;SDS011;17263;48.160;11.452;2024-01-10T02:35:52;39.57;;;22.33;;
30472;SDS011;17263;48.160;11.452;2024-01-10T02:38:18;40.57;;;21.47;;
30472;SDS011;17263;48.160;11.452;2024-01-10T02:40:46;43.73;;;24.13;;
30472;SDS011;17263;48.160;11.452;2024-01-10T02:43:12;41.23;;;22.67;;
30472;SDS011;17263;48.160;11.452;2024-01-10T02:45:38;38.37;;;22.90;;
30472;SDS011;17263;48.160;11.452;2024-01-10T02:48:04;36.63;;;20.90;;
30472;SDS011;17263;48.160;11.452;2024-01-10T02:50:30;35.47;;;22.07;;
30472;SDS011;17263;48.160;11.452;2024-01-10T02:52:56;39.07;;;22.03;;
30472;SDS011;17263;48.160;11.452;2024-01-10T02:55:22;41.03;;;23.00;;
30472;SDS011;17263;48.160;11.452;2024-01-10T02:57:48;41.33;;;23.67;;
30472;SDS011;17263;48.160;11.452;2024-01-10T03:00:15;42.00;;;22.77;;
30472;SDS011;17263;48.160;11.452;2024-01-10T03:02:41;39.13;;;21.50;;
30472;SDS011;17263;48.160;11.452;2024-01-10T03:05:07;39.43;;;22.87;;
30472;SDS011;17263;48.160;11.452;2024-01-10T03:07:33;39.97;;;23.00;;
30472;SDS011;17263;48.160;11.452;2024-01-10T03:09:59;38.00;;;22.43;;
30472;SDS011;17263;48.160;11.452;2024-01-10T03:12:25;34.87;;;21.90;;
30472;SDS011;17263;48.160;11.452;2024-01-10T03:14:51;37.13;;;22.60;;
30472;SDS011;17263;48.160;11.452;2024-01-10T03:17:17;42.60;;;23.87;;
30472;SDS011;17263;48.160;11.452;2024-01-10T03:19:43;42.17;;;23.77;;
30472;SDS011;17263;48.160;11.452;2024-01-10T03:22:10;39.27;;;23.10;;
30472;SDS011;17263;48.160;11.452;2024-01-10T03:24:36;39.27;;;22.97;;
30472;SDS011;17263;48.160;11.452;2024-01-10T03:27:03;42.13;;;23.03;;
30472;SDS011;17263;48.160;11.452;2024-01-10T03:29:29;43.47;;;23.10;;
30472;SDS011;17263;48.160;11.452;2024-01-10T03:31:55;45.13;;;24.77;;
30472;SDS011;17263;48.160;11.452;2024-01-10T03:34:21;43.33;;;23.13;;
30472;SDS011;17263;48.160;11.452;2024-01-10T03:36:47;46.27;;;24.07;;
30472;SDS011;17263;48.160;11.452;2024-01-10T03:39:14;40.67;;;23.53;;
30472;SDS011;17263;48.160;11.452;2024-01-10T03:41:40;41.30;;;23.23;;
30472;SDS011;17263;48.160;11.452;2024-01-10T03:44:06;42.23;;;23.73;;
30472;SDS011;17263;48.160;11.452;2024-01-10T03:46:32;42.53;;;24.53;;
30472;SDS011;17263;48.160;11.452;2024-01-10T03:48:58;43.17;;;24.07;;
30472;SDS011;17263;48.160;11.452;2024-01-10T03:51:24;46.87;;;25.17;;
30472;SDS011;17263;48.160;11.452;2024-01-10T03:53:50;40.30;;;23.87;;
30472;SDS011;17263;48.160;11.452;2024-01-10T03:56:16;49.60;;;25.83;;
30472;SDS011;17263;48.160;11.452;2024-01-10T03:58:42;46.17;;;26.07;;
30472;SDS011;17263;48.160;11.452;2024-01-10T04:01:08;41.27;;;24.93;;
30472;SDS011;17263;48.160;11.452;2024-01-10T04:03:34;42.07;;;25.27;;
30472;SDS011;17263;48.160;11.452;2024-01-10T04:06:01;47.60;;;26.77;;
30472;SDS011;17263;48.160;11.452;2024-01-10T04:08:28;44.77;;;26.17;;
30472;SDS011;17263;48.160;11.452;2024-01-10T04:10:54;46.50;;;25.83;;
30472;SDS011;17263;48.160;11.452;2024-01-10T04:13:20;44.23;;;25.97;;
30472;SDS011;17263;48.160;11.452;2024-01-10T04:15:46;52.67;;;26.90;;
30472;SDS011;17263;48.160;11.452;2024-01-10T04:18:12;46.70;;;25.67;;
30472;SDS011;17263;48.160;11.452;2024-01-10T04:20:38;48.43;;;25.67;;
30472;SDS011;17263;48.160;11.452;2024-01-10T04:23:04;50.00;;;26.43;;
30472;SDS011;17263;48.160;11.452;2024-01-10T04:25:30;47.73;;;26.90;;
30472;SDS011;17263;48.160;11.452;2024-01-10T04:27:56;46.03;;;26.67;;
30472;SDS011;17263;48.160;11.452;2024-01-10T04:30:23;48.90;;;28.20;;
30472;SDS011;17263;48.160;11.452;2024-01-10T04:32:49;47.23;;;26.13;;
30472;SDS011;17263;48.160;11.452;2024-01-10T04:35:15;50.03;;;26.63;;
30472;SDS011;17263;48.160;11.452;2024-01-10T04:37:41;43.87;;;25.83;;
30472;SDS011;17263;48.160;11.452;2024-01-10T04:40:07;46.83;;;26.07;;
30472;SDS011;17263;48.160;11.452;2024-01-10T04:42:33;47.50;;;25.27;;
30472;SDS011;17263;48.160;11.452;2024-01-10T04:44:59;49.17;;;27.53;;
30472;SDS011;17263;48.160;11.452;2024-01-10T04:47:25;51.53;;;26.90;;
30472;SDS011;17263;48.160;11.452;2024-01-10T04:49:51;52.63;;;26.27;;
30472;SDS011;17263;48.160;11.452;2024-01-10T04:52:18;44.17;;;25.30;;
30472;SDS011;17263;48.160;11.452;2024-01-10T04:54:44;46.10;;;25.47;;
30472;SDS011;17263;48.160;11.452;2024-01-10T04:57:10;47.70;;;25.83;;
30472;SDS011;17263;48.160;11.452;2024-01-10T04:59:36;49.93;;;26.37;;
30472;SDS011;17263;48.160;11.452;2024-01-10T05:02:02;43.17;;;24.53;;
30472;SDS011;17263;48.160;11.452;2024-01-10T05:04:28;45.17;;;25.73;;
30472;SDS011;17263;48.160;11.452;2024-01-10T05:06:54;46.40;;;26.70;;
30472;SDS011;17263;48.160;11.452;2024-01-10T05:09:20;45.70;;;26.40;;
30472;SDS011;17263;48.160;11.452;2024-01-10T05:11:46;41.10;;;25.17;;
30472;SDS011;17263;48.160;11.452;2024-01-10T05:14:13;49.03;;;27.83;;
30472;SDS011;17263;48.160;11.452;2024-01-10T05:16:39;42.30;;;24.77;;
30472;SDS011;17263;48.160;11.452;2024-01-10T05:19:05;47.60;;;26.57;;
30472;SDS011;17263;48.160;11.452;2024-01-10T05:21:32;44.80;;;25.87;;
30472;SDS011;17263;48.160;11.452;2024-01-10T05:23:59;48.60;;;26.50;;
30472;SDS011;17263;48.160;11.452;2024-01-10T05:26:25;48.00;;;27.20;;
30472;SDS011;17263;48.160;11.452;2024-01-10T05:28:51;48.17;;;26.50;;
30472;SDS011;17263;48.160;11.452;2024-01-10T05:31:17;49.57;;;27.33;;
30472;SDS011;17263;48.160;11.452;2024-01-10T05:33:43;46.93;;;26.53;;
30472;SDS011;17263;48.160;11.452;2024-01-10T05:36:09;47.90;;;27.10;;
30472;SDS011;17263;48.160;11.452;2024-01-10T05:38:37;51.57;;;28.17;;
30472;SDS011;17263;48.160;11.452;2024-01-10T05:41:03;50.70;;;28.00;;
30472;SDS011;17263;48.160;11.452;2024-01-10T05:43:29;50.23;;;28.20;;
30472;SDS011;17263;48.160;11.452;2024-01-10T05:45:55;53.97;;;28.60;;
30472;SDS011;17263;48.160;11.452;2024-01-10T05:48:21;49.20;;;27.67;;
30472;SDS011;17263;48.160;11.452;2024-01-10T05:50:47;50.03;;;26.63;;
30472;SDS011;17263;48.160;11.452;2024-01-10T05:53:13;49.63;;;27.37;;
30472;SDS011;17263;48.160;11.452;2024-01-10T05:55:43;48.07;;;25.63;;
30472;SDS011;17263;48.160;11.452;2024-01-10T05:58:10;52.17;;;28.47;;
30472;SDS011;17263;48.160;11.452;2024-01-10T06:00:36;45.90;;;25.83;;
30472;SDS011;17263;48.160;11.452;2024-01-10T06:03:03;42.80;;;25.30;;
30472;SDS011;17263;48.160;11.452;2024-01-10T06:05:29;47.17;;;26.80;;
30472;SDS011;17263;48.160;11.452;2024-01-10T06:07:57;47.80;;;25.73;;
30472;SDS011;17263;48.160;11.452;2024-01-10T06:10:23;44.77;;;26.17;;
30472;SDS011;17263;48.160;11.452;2024-01-10T06:12:49;48.50;;;26.50;;
30472;SDS011;17263;48.160;11.452;2024-01-10T06:15:15;48.80;;;27.03;;
30472;SDS011;17263;48.160;11.452;2024-01-10T06:17:41;46.20;;;25.67;;
30472;SDS011;17263;48.160;11.452;2024-01-10T06:20:08;49.03;;;26.10;;
30472;SDS011;17263;48.160;11.452;2024-01-10T06:22:34;47.70;;;26.37;;
30472;SDS011;17263;48.160;11.452;2024-01-10T06:25:00;49.13;;;26.23;;
30472;SDS011;17263;48.160;11.452;2024-01-10T06:27:26;48.53;;;26.27;;
30472;SDS011;17263;48.160;11.452;2024-01-10T06:29:53;49.87;;;25.73;;
30472;SDS011;17263;48.160;11.452;2024-01-10T06:32:19;46.07;;;25.57;;
30472;SDS011;17263;48.160;11.452;2024-01-10T06:34:45;46.27;;;25.87;;
30472;SDS011;17263;48.160;11.452;2024-01-10T06:37:11;44.37;;;25.00;;
30472;SDS011;17263;48.160;11.452;2024-01-10T06:39:37;46.37;;;25.10;;
30472;SDS011;17263;48.160;11.452;2024-01-10T06:42:03;40.73;;;23.83;;
30472;SDS011;17263;48.160;11.452;2024-01-10T06:44:31;44.43;;;25.57;;
30472;SDS011;17263;48.160;11.452;2024-01-10T06:46:57;49.50;;;26.10;;
30472;SDS011;17263;48.160;11.452;2024-01-10T06:49:23;43.17;;;25.00;;
30472;SDS011;17263;48.160;11.452;2024-01-10T06:51:49;47.77;;;25.23;;
30472;SDS011;17263;48.160;11.452;2024-01-10T06:54:16;44.73;;;25.10;;
30472;SDS011;17263;48.160;11.452;2024-01-10T06:56:43;44.67;;;26.17;;
30472;SDS011;17263;48.160;11.452;2024-01-10T06:59:09;42.03;;;24.13;;
30472;SDS011;17263;48.160;11.452;2024-01-10T07:01:35;44.43;;;24.53;;
30472;SDS011;17263;48.160;11.452;2024-01-10T07:04:02;46.87;;;24.97;;
30472;SDS011;17263;48.160;11.452;2024-01-10T07:06:30;47.43;;;24.27;;
30472;SDS011;17263;48.160;11.452;2024-01-10T07:08:56;43.63;;;23.60;;
30472;SDS011;17263;48.160;11.452;2024-01-10T07:11:24;43.93;;;24.67;;
30472;SDS011;17263;48.160;11.452;2024-01-10T07:13:50;47.87;;;24.60;;
30472;SDS011;17263;48.160;11.452;2024-01-10T07:16:16;41.40;;;23.00;;
30472;SDS011;17263;48.160;11.452;2024-01-10T07:18:42;42.33;;;23.63;;
30472;SDS011;17263;48.160;11.452;2024-01-10T07:21:08;41.83;;;22.67;;
30472;SDS011;17263;48.160;11.452;2024-01-10T07:23:36;41.43;;;22.60;;
30472;SDS011;17263;48.160;11.452;2024-01-10T07:26:05;43.23;;;23.70;;
30472;SDS011;17263;48.160;11.452;2024-01-10T07:28:32;38.63;;;22.73;;
30472;SDS011;17263;48.160;11.452;2024-01-10T07:30:58;45.77;;;23.33;;
30472;SDS011;17263;48.160;11.452;2024-01-10T07:33:27;42.87;;;23.23;;
30472;SDS011;17263;48.160;11.452;2024-01-10T07:35:57;40.60;;;22.20;;
30472;SDS011;17263;48.160;11.452;2024-01-10T07:38:23;42.00;;;23.67;;
30472;SDS011;17263;48.160;11.452;2024-01-10T07:40:49;44.17;;;23.50;;
30472;SDS011;17263;48.160;11.452;2024-01-10T07:43:15;42.43;;;23.57;;
30472;SDS011;17263;48.160;11.452;2024-01-10T07:45:41;38.10;;;21.93;;
30472;SDS011;17263;48.160;11.452;2024-01-10T07:48:07;39.90;;;22.93;;
30472;SDS011;17263;48.160;11.452;2024-01-10T07:50:33;43.53;;;24.73;;
30472;SDS011;17263;48.160;11.452;2024-01-10T07:53:00;47.27;;;25.33;;
30472;SDS011;17263;48.160;11.452;2024-01-10T07:55:26;47.83;;;25.63;;
30472;SDS011;17263;48.160;11.452;2024-01-10T07:57:55;50.53;;;24.03;;
30472;SDS011;17263;48.160;11.452;2024-01-10T08:00:21;47.87;;;25.13;;
30472;SDS011;17263;48.160;11.452;2024-01-10T08:02:47;46.47;;;24.63;;
30472;SDS011;17263;48.160;11.452;2024-01-10T08:05:15;44.37;;;24.03;;
30472;SDS011;17263;48.160;11.452;2024-01-10T08:07:41;47.97;;;24.83;;
30472;SDS011;17263;48.160;11.452;2024-01-10T08:10:08;48.20;;;25.73;;
30472;SDS011;17263;48.160;11.452;2024-01-10T08:12:39;46.07;;;23.93;;
30472;SDS011;17263;48.160;11.452;2024-01-10T08:15:07;48.93;;;25.57;;
30472;SDS011;17263;48.160;11.452;2024-01-10T08:17:33;45.97;;;24.33;;
30472;SDS011;17263;48.160;11.452;2024-01-10T08:20:00;48.07;;;25.10;;
30472;SDS011;17263;48.160;11.452;2024-01-10T08:22:29;46.40;;;24.07;;
30472;SDS011;17263;48.160;11.452;2024-01-10T08:24:55;46.17;;;24.93;;
30472;SDS011;17263;48.160;11.452;2024-01-10T08:27:21;45.70;;;24.53;;
30472;SDS011;17263;48.160;11.452;2024-01-10T08:29:48;46.60;;;23.87;;
30472;SDS011;17263;48.160;11.452;2024-01-10T08:32:14;48.57;;;24.97;;
30472;SDS011;17263;48.160;11.452;2024-01-10T08:34:40;50.37;;;25.73;;
30472;SDS011;17263;48.160;11.452;2024-01-10T08:37:07;48.23;;;24.37;;
30472;SDS011;17263;48.160;11.452;2024-01-10T08:39:33;43.43;;;24.73;;
30472;SDS011;17263;48.160;11.452;2024-01-10T08:41:59;48.33;;;26.03;;
30472;SDS011;17263;48.160;11.452;2024-01-10T08:44:25;43.03;;;25.10;;
30472;SDS011;17263;48.160;11.452;2024-01-10T08:46:51;46.83;;;24.10;;
30472;SDS011;17263;48.160;11.452;2024-01-10T08:49:18;45.13;;;23.63;;
30472;SDS011;17263;48.160;11.452;2024-01-10T08:51:44;47.10;;;24.60;;
30472;SDS011;17263;48.160;11.452;2024-01-10T08:54:12;49.63;;;26.27;;
30472;SDS011;17263;48.160;11.452;2024-01-10T08:56:45;45.47;;;24.73;;
30472;SDS011;17263;48.160;11.452;2024-01-10T08:59:12;43.87;;;23.90;;
30472;SDS011;17263;48.160;11.452;2024-01-10T09:01:38;47.50;;;24.90;;
30472;SDS011;17263;48.160;11.452;2024-01-10T09:04:04;42.20;;;23.63;;
30472;SDS011;17263;48.160;11.452;2024-01-10T09:06:31;45.33;;;23.73;;
30472;SDS011;17263;48.160;11.452;2024-01-10T09:09:01;42.93;;;24.37;;
30472;SDS011;17263;48.160;11.452;2024-01-10T09:11:28;45.30;;;25.10;;
30472;SDS011;17263;48.160;11.452;2024-01-10T09:13:54;46.77;;;25.37;;
30472;SDS011;17263;48.160;11.452;2024-01-10T09:16:20;48.50;;;25.30;;
30472;SDS011;17263;48.160;11.452;2024-01-10T09:18:46;48.50;;;25.40;;
30472;SDS011;17263;48.160;11.452;2024-01-10T09:21:14;45.33;;;25.60;;
30472;SDS011;17263;48.160;11.452;2024-01-10T09:23:40;47.27;;;25.53;;
30472;SDS011;17263;48.160;11.452;2024-01-10T09:26:07;50.50;;;26.87;;
30472;SDS011;17263;48.160;11.452;2024-01-10T09:28:34;47.40;;;26.13;;
30472;SDS011;17263;48.160;11.452;2024-01-10T09:31:00;42.97;;;24.83;;
30472;SDS011;17263;48.160;11.452;2024-01-10T09:33:26;42.07;;;24.43;;
30472;SDS011;17263;48.160;11.452;2024-01-10T09:35:52;44.23;;;25.10;;
30472;SDS011;17263;48.160;11.452;2024-01-10T09:38:18;49.53;;;26.43;;
30472;SDS011;17263;48.160;11.452;2024-01-10T09:40:44;45.87;;;26.30;;
30472;SDS011;17263;48.160;11.452;2024-01-10T09:43:10;44.83;;;26.10;;
30472;SDS011;17263;48.160;11.452;2024-01-10T09:45:36;44.20;;;25.23;;
30472;SDS011;17263;48.160;11.452;2024-01-10T09:48:12;45.90;;;26.03;;
30472;SDS011;17263;48.160;11.452;2024-01-10T09:50:40;45.73;;;27.27;;
30472;SDS011;17263;48.160;11.452;2024-01-10T09:53:07;45.67;;;26.87;;
30472;SDS011;17263;48.160;11.452;2024-01-10T09:55:35;48.23;;;26.83;;
30472;SDS011;17263;48.160;11.452;2024-01-10T09:58:05;45.37;;;25.93;;
30472;SDS011;17263;48.160;11.452;2024-01-10T10:00:34;48.43;;;27.87;;
30472;SDS011;17263;48.160;11.452;2024-01-10T10:03:06;47.43;;;27.03;;
30472;SDS011;17263;48.160;11.452;2024-01-10T10:05:34;46.60;;;27.07;;
30472;SDS011;17263;48.160;11.452;2024-01-10T10:08:00;47.13;;;27.50;;
30472;SDS011;17263;48.160;11.452;2024-01-10T10:10:26;46.60;;;26.33;;
30472;SDS011;17263;48.160;11.452;2024-01-10T10:12:53;40.50;;;25.37;;
30472;SDS011;17263;48.160;11.452;2024-01-10T10:15:20;46.17;;;27.03;;
30472;SDS011;17263;48.160;11.452;2024-01-10T10:17:47;46.83;;;25.60;;
30472;SDS011;17263;48.160;11.452;2024-01-10T10:20:21;47.33;;;26.53;;
30472;SDS011;17263;48.160;11.452;2024-01-10T10:22:57;41.33;;;25.03;;
30472;SDS011;17263;48.160;11.452;2024-01-10T10:25:28;43.83;;;26.20;;
30472;SDS011;17263;48.160;11.452;2024-01-10T10:27:56;44.90;;;26.63;;
30472;SDS011;17263;48.160;11.452;2024-01-10T10:30:22;49.70;;;27.80;;
30472;SDS011;17263;48.160;11.452;2024-01-10T10:32:48;48.27;;;27.03;;
30472;SDS011;17263;48.160;11.452;2024-01-10T10:35:14;46.60;;;27.40;;
30472;SDS011;17263;48.160;11.452;2024-01-10T10:37:40;47.07;;;28.50;;
30472;SDS011;17263;48.160;11.452;2024-01-10T10:40:07;46.83;;;28.93;;
30472;SDS011;17263;48.160;11.452;2024-01-10T10:42:37;49.57;;;28.23;;
30472;SDS011;17263;48.160;11.452;2024-01-10T10:45:09;46.53;;;28.13;;
30472;SDS011;17263;48.160;11.452;2024-01-10T10:47:45;46.80;;;27.47;;
30472;SDS011;17263;48.160;11.452;2024-01-10T10:50:21;47.23;;;28.23;;
30472;SDS011;17263;48.160;11.452;2024-01-10T10:52:48;49.73;;;27.57;;
30472;SDS011;17263;48.160;11.452;2024-01-10T10:55:16;48.37;;;28.03;;
30472;SDS011;17263;48.160;11.452;2024-01-10T10:57:46;50.07;;;28.23;;
30472;SDS011;17263;48.160;11.452;2024-01-10T11:00:14;52.77;;;29.17;;
30472;SDS011;17263;48.160;11.452;2024-01-10T11:02:42;47.50;;;27.90;;
30472;SDS011;17263;48.160;11.452;2024-01-10T11:05:09;53.80;;;28.97;;
30472;SDS011;17263;48.160;11.452;2024-01-10T11:07:37;46.07;;;28.27;;
30472;SDS011;17263;48.160;11.452;2024-01-10T11:10:26;51.07;;;28.43;;
30472;SDS011;17263;48.160;11.452;2024-01-10T11:24:24;49.60;;;27.37;;
30472;SDS011;17263;48.160;11.452;2024-01-10T11:26:50;47.90;;;28.90;;
30472;SDS011;17263;48.160;11.452;2024-01-10T11:29:31;50.43;;;28.20;;
30472;SDS011;17263;48.160;11.452;2024-01-10T11:31:58;50.23;;;27.13;;
30472;SDS011;17263;48.160;11.452;2024-01-10T11:34:24;48.07;;;28.17;;
30472;SDS011;17263;48.160;11.452;2024-01-10T11:37:09;53.70;;;28.77;;
30472;SDS011;17263;48.160;11.452;2024-01-10T11:39:36;49.90;;;27.70;;
30472;SDS011;17263;48.160;11.452;2024-01-10T11:42:03;48.50;;;27.50;;
30472;SDS011;17263;48.160;11.452;2024-01-10T11:44:29;53.00;;;29.57;;
30472;SDS011;17263;48.160;11.452;2024-01-10T11:46:56;48.17;;;27.73;;
30472;SDS011;17263;48.160;11.452;2024-01-10T11:49:24;51.57;;;30.17;;
30472;SDS011;17263;48.160;11.452;2024-01-10T11:51:53;50.83;;;28.40;;
30472;SDS011;17263;48.160;11.452;2024-01-10T11:57:10;50.20;;;27.83;;
30472;SDS011;17263;48.160;11.452;2024-01-10T11:59:38;54.77;;;29.60;;
30472;SDS011;17263;48.160;11.452;2024-01-10T12:02:07;48.27;;;28.23;;
30472;SDS011;17263;48.160;11.452;2024-01-10T12:04:33;52.37;;;29.20;;
30472;SDS011;17263;48.160;11.452;2024-01-10T12:07:02;52.40;;;28.43;;
30472;SDS011;17263;48.160;11.452;2024-01-10T12:09:29;53.33;;;28.80;;
30472;SDS011;17263;48.160;11.452;2024-01-10T12:11:55;53.70;;;28.13;;
30472;SDS011;17263;48.160;11.452;2024-01-10T12:14:22;48.83;;;26.80;;
30472;SDS011;17263;48.160;11.452;2024-01-10T12:16:48;50.10;;;28.57;;
30472;SDS011;17263;48.160;11.452;2024-01-10T12:19:16;48.47;;;27.90;;
30472;SDS011;17263;48.160;11.452;2024-01-10T12:21:42;45.90;;;27.00;;
30472;SDS011;17263;48.160;11.452;2024-01-10T12:24:08;46.30;;;26.57;;
30472;SDS011;17263;48.160;11.452;2024-01-10T12:26:34;56.70;;;29.97;;
30472;SDS011;17263;48.160;11.452;2024-01-10T12:29:01;50.30;;;28.23;;
30472;SDS011;17263;48.160;11.452;2024-01-10T12:31:31;51.50;;;28.47;;
30472;SDS011;17263;48.160;11.452;2024-01-10T12:33:58;48.53;;;26.93;;
30472;SDS011;17263;48.160;11.452;2024-01-10T12:36:24;52.83;;;28.27;;
30472;SDS011;17263;48.160;11.452;2024-01-10T12:38:51;47.20;;;27.70;;
30472;SDS011;17263;48.160;11.452;2024-01-10T12:41:17;49.93;;;27.43;;
30472;SDS011;17263;48.160;11.452;2024-01-10T12:43:53;52.83;;;30.23;;
30472;SDS011;17263;48.160;11.452;2024-01-10T12:46:22;52.60;;;29.27;;
30472;SDS011;17263;48.160;11.452;2024-01-10T12:49:04;51.77;;;28.17;;
30472;SDS011;17263;48.160;11.452;2024-01-10T12:51:32;56.10;;;28.13;;
30472;SDS011;17263;48.160;11.452;2024-01-10T12:54:01;48.67;;;27.33;;
30472;SDS011;17263;48.160;11.452;2024-01-10T12:56:29;47.83;;;28.67;;
30472;SDS011;17263;48.160;11.452;2024-01-10T12:58:56;52.50;;;29.70;;
30472;SDS011;17263;48.160;11.452;2024-01-10T13:01:25;56.03;;;30.50;;
30472;SDS011;17263;48.160;11.452;2024-01-10T13:03:51;48.53;;;27.60;;
30472;SDS011;17263;48.160;11.452;2024-01-10T13:06:18;48.47;;;28.20;;
30472;SDS011;17263;48.160;11.452;2024-01-10T13:08:45;56.77;;;29.90;;
30472;SDS011;17263;48.160;11.452;2024-01-10T13:11:11;51.10;;;28.87;;
30472;SDS011;17263;48.160;11.452;2024-01-10T13:13:39;50.63;;;28.47;;
30472;SDS011;17263;48.160;11.452;2024-01-10T13:16:06;50.60;;;28.17;;
30472;SDS011;17263;48.160;11.452;2024-01-10T13:18:32;53.53;;;28.67;;
30472;SDS011;17263;48.160;11.452;2024-01-10T13:20:59;51.97;;;29.60;;
30472;SDS011;17263;48.160;11.452;2024-01-10T13:23:25;49.97;;;28.00;;
30472;SDS011;17263;48.160;11.452;2024-01-10T13:25:51;51.07;;;30.63;;
30472;SDS011;17263;48.160;11.452;2024-01-10T13:28:20;45.63;;;26.63;;
30472;SDS011;17263;48.160;11.452;2024-01-10T13:30:46;50.80;;;27.37;;
30472;SDS011;17263;48.160;11.452;2024-01-10T13:33:12;49.10;;;26.53;;
30472;SDS011;17263;48.160;11.452;2024-01-10T13:35:38;46.53;;;27.47;;
30472;SDS011;17263;48.160;11.452;2024-01-10T13:38:05;51.23;;;28.10;;
30472;SDS011;17263;48.160;11.452;2024-01-10T13:40:31;50.63;;;27.53;;
30472;SDS011;17263;48.160;11.452;2024-01-10T13:42:59;50.90;;;28.03;;
30472;SDS011;17263;48.160;11.452;2024-01-10T13:45:28;51.57;;;27.70;;
30472;SDS011;17263;48.160;11.452;2024-01-10T13:47:54;49.73;;;27.93;;
30472;SDS011;17263;48.160;11.452;2024-01-10T13:50:21;48.70;;;27.00;;
30472;SDS011;17263;48.160;11.452;2024-01-10T13:52:47;44.30;;;25.60;;
30472;SDS011;17263;48.160;11.452;2024-01-10T13:55:13;48.27;;;28.20;;
30472;SDS011;17263;48.160;11.452;2024-01-10T13:57:39;46.47;;;26.27;;
30472;SDS011;17263;48.160;11.452;2024-01-10T14:00:05;51.07;;;27.80;;
30472;SDS011;17263;48.160;11.452;2024-01-10T14:02:40;42.90;;;26.00;;
30472;SDS011;17263;48.160;11.452;2024-01-10T14:05:07;44.87;;;26.70;;
30472;SDS011;17263;48.160;11.452;2024-01-10T14:07:35;46.93;;;27.43;;
30472;SDS011;17263;48.160;11.452;2024-01-10T14:10:01;43.40;;;25.87;;
30472;SDS011;17263;48.160;11.452;2024-01-10T14:12:28;45.43;;;26.77;;
30472;SDS011;17263;48.160;11.452;2024-01-10T14:14:57;46.47;;;25.57;;
30472;SDS011;17263;48.160;11.452;2024-01-10T14:17:24;50.53;;;27.67;;
30472;SDS011;17263;48.160;11.452;2024-01-10T14:19:53;49.17;;;27.00;;
30472;SDS011;17263;48.160;11.452;2024-01-10T14:22:19;46.23;;;26.57;;